Time;durP1;ratioP1;P1;durP2;ratioP2;P2;SDS_P1;SDS_P2;PMS_P1;PMS_P2;Temp;Humidity;BMP_temperature;BMP_pressure;BME280_temperature;BME280_humidity;BME280_pressure;Samples;Min_cycle;Max_cycle;Signal;HPM_P1;HPM_P2
2022/06/03 00:03:28;;;;;;;3.10;2.80;;;;;;;;;;6330565;28;20148;-83
2022/06/03 00:07:06;;;;;;;3.55;2.88;;;;;;;;;;6318625;27;20040;-81
2022/06/03 00:10:29;;;;;;;4.15;3.00;;;;;;;;;;6350256;27;20047;-82
2022/06/03 00:14:02;;;;;;;5.80;2.97;;;;;;;;;;6328214;28;20125;-82
2022/06/03 00:17:21;;;;;;;7.63;3.78;;;;;;;;;;6328272;28;20089;-82
2022/06/03 00:20:44;;;;;;;5.22;3.40;;;;;;;;;;6329481;28;20044;-82
2022/06/03 00:24:10;;;;;;;3.97;3.50;;;;;;;;;;6349014;28;20097;-83
2022/06/03 00:27:25;;;;;;;4.90;3.53;;;;;;;;;;6343061;27;20134;-83
2022/06/03 00:30:33;;;;;;;6.13;3.83;;;;;;;;;;6338128;28;20059;-83
2022/06/03 00:33:59;;;;;;;5.30;3.47;;;;;;;;;;6337575;28;20073;-81
2022/06/03 00:37:31;;;;;;;5.78;3.70;;;;;;;;;;6346539;28;20096;-83
2022/06/03 00:41:01;;;;;;;4.53;3.40;;;;;;;;;;6319528;28;20493;-84
2022/06/03 00:44:41;;;;;;;3.88;3.28;;;;;;;;;;6329678;27;20052;-83
2022/06/03 00:47:55;;;;;;;3.90;3.50;;;;;;;;;;6345534;28;20063;-81
2022/06/03 00:51:22;;;;;;;3.55;3.00;;;;;;;;;;6327114;28;20089;-81
2022/06/03 00:54:30;;;;;;;5.10;3.63;;;;;;;;;;6317632;28;20097;-83
2022/06/03 00:57:56;;;;;;;3.90;3.30;;;;;;;;;;6357205;27;20062;-81
2022/06/03 01:01:06;;;;;;;3.80;3.40;;;;;;;;;;6332876;28;20039;-83
2022/06/03 01:04:35;;;;;;;3.80;3.45;;;;;;;;;;6341122;28;20058;-83
2022/06/03 01:07:41;;;;;;;4.47;3.70;;;;;;;;;;6357267;27;20051;-83
2022/06/03 01:11:18;;;;;;;4.97;3.85;;;;;;;;;;6354249;28;20154;-83
2022/06/03 01:14:30;;;;;;;4.80;3.88;;;;;;;;;;6356737;28;20047;-84
2022/06/03 01:17:48;;;;;;;5.50;3.80;;;;;;;;;;6334543;28;20172;-81
2022/06/03 01:21:20;;;;;;;4.68;3.67;;;;;;;;;;6356380;28;20046;-83
2022/06/03 01:24:43;;;;;;;3.65;3.15;;;;;;;;;;6350670;27;20036;-81
2022/06/03 01:28:12;;;;;;;4.13;3.20;;;;;;;;;;6352046;28;20040;-83
2022/06/03 01:31:48;;;;;;;4.18;3.22;;;;;;;;;;6355509;28;20050;-84
2022/06/03 01:35:20;;;;;;;4.60;3.08;;;;;;;;;;6345331;27;20054;-83
2022/06/03 01:38:29;;;;;;;3.58;3.03;;;;;;;;;;6341520;27;20044;-84
2022/06/03 01:41:53;;;;;;;4.55;3.40;;;;;;;;;;6353833;28;20047;-84
2022/06/03 01:45:21;;;;;;;;;;;;;;;;;;6358152;27;20088;-84
2022/06/03 01:48:52;;;;;;;4.68;3.63;;;;;;;;;;6333493;28;19969;-84
2022/06/03 01:52:15;;;;;;;5.38;4.00;;;;;;;;;;6300837;27;20128;-84
2022/06/03 01:55:48;;;;;;;4.25;3.55;;;;;;;;;;6356662;28;20074;-83
2022/06/03 01:59:24;;;;;;;4.67;3.80;;;;;;;;;;6349735;28;20043;-83
2022/06/03 02:02:36;;;;;;;6.47;4.00;;;;;;;;;;6356173;28;20071;-83
2022/06/03 02:05:50;;;;;;;5.90;4.07;;;;;;;;;;6333106;28;20040;-84
2022/06/03 02:09:29;;;;;;;6.68;3.80;;;;;;;;;;6333536;28;20069;-84
2022/06/03 02:12:43;;;;;;;4.22;3.72;;;;;;;;;;6312449;28;20092;-83
2022/06/03 02:16:15;;;;;;;4.75;3.35;;;;;;;;;;6337155;28;20056;-84
2022/06/03 02:19:16;;;;;;;3.83;3.13;;;;;;;;;;6337971;27;20044;-83
2022/06/03 02:22:45;;;;;;;4.38;3.35;;;;;;;;;;6362273;27;20070;-84
2022/06/03 02:26:19;;;;;;;4.85;3.60;;;;;;;;;;6341385;28;20043;-83
2022/06/03 02:30:26;;;;;;;4.13;3.33;;;;;;;;;;6345075;28;20055;-82
2022/06/03 02:33:45;;;;;;;3.38;3.05;;;;;;;;;;6305191;28;20100;-82
2022/06/03 02:36:53;;;;;;;3.63;3.05;;;;;;;;;;6342408;28;20100;-82
2022/06/03 02:40:15;;;;;;;4.05;3.17;;;;;;;;;;6339861;28;20496;-81
2022/06/03 02:43:39;;;;;;;4.25;3.25;;;;;;;;;;6344420;28;20047;-83
2022/06/03 02:46:52;;;;;;;;;;;;;;;;;;6322656;28;20043;-81
2022/06/03 02:50:13;;;;;;;3.97;3.05;;;;;;;;;;6341392;28;19951;-84
2022/06/03 02:53:20;;;;;;;4.47;3.45;;;;;;;;;;6346460;28;22181;-81
2022/06/03 02:56:57;;;;;;;4.53;3.70;;;;;;;;;;6325872;28;20114;-83
2022/06/03 03:00:19;;;;;;;3.78;3.10;;;;;;;;;;6343586;28;20043;-84
2022/06/03 03:03:43;;;;;;;3.63;3.13;;;;;;;;;;6333558;28;20089;-83
2022/06/03 03:07:20;;;;;;;3.63;3.10;;;;;;;;;;6336497;28;20050;-83
2022/06/03 03:10:28;;;;;;;4.60;3.40;;;;;;;;;;6337536;28;20058;-83
2022/06/03 03:13:55;;;;;;;3.80;3.10;;;;;;;;;;6322003;28;20096;-83
2022/06/03 03:16:59;;;;;;;4.65;3.30;;;;;;;;;;6338749;28;20060;-82
2022/06/03 03:20:26;;;;;;;4.05;3.25;;;;;;;;;;6343414;28;20814;-82
2022/06/03 03:23:47;;;;;;;4.25;3.13;;;;;;;;;;6319677;28;20177;-83
2022/06/03 03:27:07;;;;;;;4.63;3.67;;;;;;;;;;6336053;28;20056;-83
2022/06/03 03:30:31;;;;;;;5.50;4.00;;;;;;;;;;6320639;28;20550;-83
2022/06/03 03:34:10;;;;;;;5.65;3.70;;;;;;;;;;6332751;28;20801;-83
2022/06/03 03:37:45;;;;;;;4.43;4.00;;;;;;;;;;6320286;28;20044;-82
2022/06/03 03:40:50;;;;;;;3.95;3.38;;;;;;;;;;6336240;28;20051;-83
2022/06/03 03:44:21;;;;;;;5.05;3.72;;;;;;;;;;6346853;28;20097;-85
2022/06/03 03:47:40;;;;;;;4.40;3.75;;;;;;;;;;6301078;28;20069;-87
2022/06/03 03:51:12;;;;;;;3.97;3.58;;;;;;;;;;6343092;28;20527;-84
2022/06/03 03:54:48;;;;;;;3.50;3.20;;;;;;;;;;6348503;27;20060;-87
2022/06/03 03:57:58;;;;;;;4.50;3.55;;;;;;;;;;6305379;27;20047;-86
2022/06/03 04:01:01;;;;;;;5.75;3.80;;;;;;;;;;6325775;28;20047;-87
2022/06/03 04:04:05;;;;;;;4.13;3.53;;;;;;;;;;6317443;28;20047;-87
2022/06/03 04:07:40;;;;;;;4.18;3.30;;;;;;;;;;6314582;28;20345;-87
2022/06/03 04:11:05;;;;;;;4.65;3.47;;;;;;;;;;6298372;28;20039;-87
2022/06/03 04:14:19;;;;;;;4.97;4.00;;;;;;;;;;6342485;28;20082;-86
2022/06/03 04:17:36;;;;;;;4.38;3.97;;;;;;;;;;6350948;28;20054;-86
2022/06/03 04:21:17;;;;;;;4.68;3.97;;;;;;;;;;6343791;28;20147;-86
2022/06/03 04:24:56;;;;;;;4.55;3.90;;;;;;;;;;6276223;28;20040;-85
2022/06/03 04:28:19;;;;;;;4.40;3.70;;;;;;;;;;6332789;28;20051;-87
2022/06/03 04:31:40;;;;;;;4.32;3.80;;;;;;;;;;6337619;28;20055;-85
2022/06/03 04:35:09;;;;;;;4.75;3.85;;;;;;;;;;6365647;27;20111;-86
2022/06/03 04:38:32;;;;;;;4.82;3.85;;;;;;;;;;6317501;28;20416;-87
2022/06/03 04:41:56;;;;;;;6.73;3.73;;;;;;;;;;6366154;27;20043;-87
2022/06/03 04:45:04;;;;;;;5.15;3.85;;;;;;;;;;6345227;28;20048;-87
2022/06/03 04:48:45;;;;;;;4.85;3.97;;;;;;;;;;6310625;28;20046;-85
2022/06/03 04:52:08;;;;;;;5.22;3.85;;;;;;;;;;6344286;27;20050;-86
2022/06/03 04:55:52;;;;;;;5.60;3.70;;;;;;;;;;6333836;28;20047;-86
2022/06/03 04:59:12;;;;;;;7.05;3.85;;;;;;;;;;6310437;28;20073;-87
2022/06/03 05:02:52;;;;;;;6.40;4.18;;;;;;;;;;6338278;27;20099;-85
2022/06/03 05:06:15;;;;;;;4.55;3.65;;;;;;;;;;6329742;28;20050;-87
2022/06/03 05:09:39;;;;;;;10.15;4.07;;;;;;;;;;6302307;28;20048;-84
2022/06/03 05:13:12;;;;;;;6.65;3.70;;;;;;;;;;6332285;28;20115;-87
2022/06/03 05:16:39;;;;;;;6.47;3.50;;;;;;;;;;6329172;28;20040;-86
2022/06/03 05:20:13;;;;;;;10.40;4.05;;;;;;;;;;6328804;27;20039;-86
2022/06/03 05:23:27;;;;;;;8.25;3.80;;;;;;;;;;6323637;28;20093;-87
2022/06/03 05:26:47;;;;;;;;;;;;;;;;;;6312372;28;20048;-86
2022/06/03 05:30:19;;;;;;;6.03;3.38;;;;;;;;;;6345921;27;19919;-87
2022/06/03 05:33:39;;;;;;;8.65;4.32;;;;;;;;;;6335277;28;20051;-86
2022/06/03 05:37:22;;;;;;;13.15;4.03;;;;;;;;;;6348797;28;20039;-88
2022/06/03 05:41:05;;;;;;;13.35;5.00;;;;;;;;;;6364044;27;20052;-88
2022/06/03 05:44:40;;;;;;;18.60;4.57;;;;;;;;;;6330726;27;20531;-87
2022/06/03 05:47:50;;;;;;;21.30;5.20;;;;;;;;;;6290438;28;20065;-83
2022/06/03 05:51:00;;;;;;;14.93;4.60;;;;;;;;;;6338113;28;20043;-86
2022/06/03 05:54:12;;;;;;;16.75;4.63;;;;;;;;;;6344604;28;20112;-85
2022/06/03 05:57:22;;;;;;;7.50;3.88;;;;;;;;;;6342907;28;20036;-86
2022/06/03 06:00:54;;;;;;;13.60;3.97;;;;;;;;;;6313805;28;20424;-85
2022/06/03 06:04:05;;;;;;;13.50;4.25;;;;;;;;;;6326149;28;20058;-84
2022/06/03 06:07:18;;;;;;;13.50;3.97;;;;;;;;;;6336887;27;20266;-84
2022/06/03 06:10:41;;;;;;;15.18;4.35;;;;;;;;;;6345325;28;20436;-86
2022/06/03 06:14:04;;;;;;;8.23;3.45;;;;;;;;;;6344878;28;20051;-84
2022/06/03 06:17:35;;;;;;;12.18;3.78;;;;;;;;;;6338239;28;20508;-86
2022/06/03 06:20:45;;;;;;;4.03;2.80;;;;;;;;;;6321771;28;20176;-84
2022/06/03 06:23:52;;;;;;;7.07;2.78;;;;;;;;;;6348702;28;20047;-85
2022/06/03 06:27:23;;;;;;;4.88;2.70;;;;;;;;;;6310901;28;20040;-86
2022/06/03 06:30:51;;;;;;;6.28;2.55;;;;;;;;;;6345232;27;20040;-86
2022/06/03 06:34:11;;;;;;;4.43;2.50;;;;;;;;;;6311988;28;20050;-85
2022/06/03 06:37:25;;;;;;;4.75;2.70;;;;;;;;;;6310553;28;20052;-82
2022/06/03 06:40:39;;;;;;;3.95;2.42;;;;;;;;;;6327520;28;20089;-85
2022/06/03 06:43:55;;;;;;;6.03;2.53;;;;;;;;;;6338460;28;20063;-85
2022/06/03 06:47:12;;;;;;;6.63;2.83;;;;;;;;;;6344422;27;20451;-83
2022/06/03 06:50:22;;;;;;;3.80;2.15;;;;;;;;;;6340737;28;20063;-82
2022/06/03 06:53:36;;;;;;;4.22;2.40;;;;;;;;;;6345651;28;20054;-80
2022/06/03 06:56:46;;;;;;;4.50;2.55;;;;;;;;;;6340805;28;20086;-84
2022/06/03 06:59:59;;;;;;;2.70;1.90;;;;;;;;;;6306153;28;20826;-84
2022/06/03 07:03:14;;;;;;;1.88;1.73;;;;;;;;;;6338688;28;20046;-84
2022/06/03 07:06:40;;;;;;;1.70;1.60;;;;;;;;;;6338672;28;20050;-84
2022/06/03 07:10:08;;;;;;;1.33;1.23;;;;;;;;;;6324481;28;20089;-85
2022/06/03 07:13:15;;;;;;;2.00;1.63;;;;;;;;;;6320483;28;20064;-84
2022/06/03 07:20:10;;;;;;;1.73;1.63;;;;;;;;;;6332527;28;20036;-84
2022/06/03 07:23:39;;;;;;;2.35;1.50;;;;;;;;;;6355696;27;20510;-85
2022/06/03 07:26:48;;;;;;;2.55;1.65;;;;;;;;;;6348833;27;20036;-85
2022/06/03 07:30:05;;;;;;;1.80;1.60;;;;;;;;;;6349840;27;20843;-86
2022/06/03 07:33:16;;;;;;;1.80;1.60;;;;;;;;;;6322069;28;20076;-82
2022/06/03 07:36:35;;;;;;;1.60;1.50;;;;;;;;;;6328797;28;20051;-84
2022/06/03 07:39:49;;;;;;;1.80;1.70;;;;;;;;;;6346508;27;20599;-82
2022/06/03 07:43:06;;;;;;;1.80;1.40;;;;;;;;;;6329684;27;20053;-83
2022/06/03 07:46:37;;;;;;;2.20;1.50;;;;;;;;;;6346416;27;20050;-83
2022/06/03 07:49:39;;;;;;;2.45;1.60;;;;;;;;;;6336310;27;20060;-83
2022/06/03 07:53:02;;;;;;;3.97;1.80;;;;;;;;;;6355995;27;20173;-82
2022/06/03 07:56:04;;;;;;;2.30;1.55;;;;;;;;;;6348437;27;20077;-84
2022/06/03 07:59:34;;;;;;;1.55;1.45;;;;;;;;;;6326526;27;20404;-83
2022/06/03 08:02:35;;;;;;;1.45;1.35;;;;;;;;;;6334765;28;20043;-84
2022/06/03 08:05:37;;;;;;;1.80;1.63;;;;;;;;;;6330454;28;20070;-83
2022/06/03 08:12:02;;;;;;;4.65;1.80;;;;;;;;;;6332761;28;20114;-83
2022/06/03 08:15:22;;;;;;;2.83;1.67;;;;;;;;;;6343731;27;20043;-83
2022/06/03 08:18:30;;;;;;;2.00;1.50;;;;;;;;;;6326200;28;20047;-85
2022/06/03 08:21:46;;;;;;;1.80;1.50;;;;;;;;;;6342986;27;20044;-82
2022/06/03 08:24:55;;;;;;;2.10;1.60;;;;;;;;;;6335907;28;20090;-82
2022/06/03 08:27:58;;;;;;;1.80;1.65;;;;;;;;;;6346295;28;20055;-84
2022/06/03 08:31:03;;;;;;;2.90;1.70;;;;;;;;;;6336126;28;20042;-84
2022/06/03 08:34:12;;;;;;;1.65;1.55;;;;;;;;;;6347132;28;20112;-84
2022/06/03 08:37:20;;;;;;;2.90;1.65;;;;;;;;;;6327164;28;20059;-85
2022/06/03 08:40:35;;;;;;;2.53;1.63;;;;;;;;;;6344233;28;20063;-84
2022/06/03 08:44:02;;;;;;;1.52;1.42;;;;;;;;;;6363385;27;20538;-84
2022/06/03 08:47:17;;;;;;;1.80;1.48;;;;;;;;;;6361297;27;20107;-84
2022/06/03 08:50:32;;;;;;;1.67;1.50;;;;;;;;;;6346324;27;20043;-84
2022/06/03 08:53:59;;;;;;;1.70;1.60;;;;;;;;;;6327247;28;20039;-82
2022/06/03 08:57:07;;;;;;;2.40;1.60;;;;;;;;;;6329571;28;20132;-85
2022/06/03 09:00:13;;;;;;;1.85;1.58;;;;;;;;;;6324291;28;20055;-84
2022/06/03 09:03:18;;;;;;;2.97;1.50;;;;;;;;;;6340619;28;20128;-82
2022/06/03 09:06:33;;;;;;;1.85;1.58;;;;;;;;;;6327239;28;20144;-83
2022/06/03 09:10:05;;;;;;;2.17;1.98;;;;;;;;;;6338987;28;20043;-84
2022/06/03 09:13:36;;;;;;;2.63;1.80;;;;;;;;;;6325421;28;20061;-82
2022/06/03 09:16:40;;;;;;;1.75;1.65;;;;;;;;;;6321989;28;20556;-85
2022/06/03 09:19:46;;;;;;;2.15;1.70;;;;;;;;;;6351265;27;20059;-83
2022/06/03 09:22:50;;;;;;;2.50;1.60;;;;;;;;;;6326220;28;20160;-83
2022/06/03 09:25:56;;;;;;;2.08;1.65;;;;;;;;;;6330708;28;20055;-84
2022/06/03 09:29:00;;;;;;;1.90;1.80;;;;;;;;;;6331407;27;20085;-83
2022/06/03 09:32:04;;;;;;;2.03;1.70;;;;;;;;;;6348847;27;20047;-85
2022/06/03 09:35:11;;;;;;;2.58;1.70;;;;;;;;;;6318881;28;20044;-83
2022/06/03 09:38:16;;;;;;;3.58;1.60;;;;;;;;;;6353722;27;20092;-85
2022/06/03 09:41:21;;;;;;;1.60;1.50;;;;;;;;;;6315786;28;20050;-85
2022/06/03 09:44:26;;;;;;;2.00;1.90;;;;;;;;;;6346942;28;20122;-84
2022/06/03 09:47:28;;;;;;;2.28;2.00;;;;;;;;;;6313913;28;20067;-85
2022/06/03 09:50:31;;;;;;;3.67;1.90;;;;;;;;;;6327834;28;20043;-85
2022/06/03 09:53:36;;;;;;;2.25;2.00;;;;;;;;;;6333834;28;20047;-83
2022/06/03 09:56:39;;;;;;;2.55;2.00;;;;;;;;;;6349717;28;20437;-84
2022/06/03 09:59:49;;;;;;;2.05;1.85;;;;;;;;;;6333565;28;20043;-83
2022/06/03 10:02:56;;;;;;;4.45;1.95;;;;;;;;;;6336594;28;20088;-83
2022/06/03 10:05:59;;;;;;;2.03;1.90;;;;;;;;;;6344249;27;20567;-84
2022/06/03 10:16:00;;;;;;;1.90;1.80;;;;;;;;;;6348156;28;20093;-83
2022/06/03 10:19:02;;;;;;;2.58;2.28;;;;;;;;;;6316453;28;20048;-85
2022/06/03 10:22:09;;;;;;;3.07;2.37;;;;;;;;;;6337819;28;20043;-84
2022/06/03 10:25:11;;;;;;;2.67;2.25;;;;;;;;;;6354597;27;20596;-86
2022/06/03 10:28:15;;;;;;;3.47;1.90;;;;;;;;;;6304904;28;20044;-82
2022/06/03 10:31:20;;;;;;;2.70;2.25;;;;;;;;;;6335587;28;20411;-81
2022/06/03 10:34:24;;;;;;;2.72;2.00;;;;;;;;;;6321376;28;20067;-81
2022/06/03 10:37:26;;;;;;;3.53;2.25;;;;;;;;;;6337477;28;20051;-80
2022/06/03 10:40:28;;;;;;;2.78;2.10;;;;;;;;;;6335633;27;20047;-79
2022/06/03 10:43:32;;;;;;;2.35;2.10;;;;;;;;;;6334461;27;20039;-81
2022/06/03 10:46:34;;;;;;;2.30;2.10;;;;;;;;;;6332184;28;20040;-80
2022/06/03 10:49:55;;;;;;;3.03;2.20;;;;;;;;;;6316995;28;20052;-82
2022/06/03 11:03:27;;;;;;;2.22;2.05;;;;;;;;;;6338789;28;20127;-83
2022/06/03 11:06:35;;;;;;;2.30;2.08;;;;;;;;;;6338049;28;20116;-81
2022/06/03 11:09:38;;;;;;;2.45;2.25;;;;;;;;;;6332759;28;20126;-80
2022/06/03 11:12:40;;;;;;;2.95;2.20;;;;;;;;;;6339845;28;20067;-80
2022/06/03 11:15:44;;;;;;;2.90;2.40;;;;;;;;;;6341600;27;20499;-81
2022/06/03 11:18:46;;;;;;;2.42;2.00;;;;;;;;;;6332066;28;20491;-80
2022/06/03 11:21:51;;;;;;;2.90;2.30;;;;;;;;;;6336488;28;20039;-81
2022/06/03 11:25:03;;;;;;;2.78;2.10;;;;;;;;;;6341048;28;20945;-81
2022/06/03 11:28:07;;;;;;;3.22;2.35;;;;;;;;;;6333828;28;20047;-80
2022/06/03 11:31:23;;;;;;;3.17;2.30;;;;;;;;;;6340602;27;20103;-77
2022/06/03 11:34:37;;;;;;;5.28;2.40;;;;;;;;;;6332287;27;20096;-78
2022/06/03 11:37:45;;;;;;;2.72;2.50;;;;;;;;;;6343653;27;20043;-80
2022/06/03 11:40:54;;;;;;;2.80;2.60;;;;;;;;;;6323205;27;20066;-80
2022/06/03 11:44:15;;;;;;;2.78;2.58;;;;;;;;;;6345914;27;20093;-79
2022/06/03 11:47:38;;;;;;;3.33;2.67;;;;;;;;;;6341888;27;20035;-79
2022/06/03 11:50:41;;;;;;;3.30;2.58;;;;;;;;;;6337584;27;20039;-79
2022/06/03 11:53:48;;;;;;;2.97;2.60;;;;;;;;;;6340166;27;20211;-79
2022/06/03 11:56:51;;;;;;;3.60;2.60;;;;;;;;;;6314207;28;20036;-79
2022/06/03 12:00:02;;;;;;;2.83;2.60;;;;;;;;;;6341629;27;20039;-79
2022/06/03 12:03:31;;;;;;;3.03;2.55;;;;;;;;;;6334197;27;20039;-80
2022/06/03 12:06:48;;;;;;;3.53;2.80;;;;;;;;;;6341634;27;21204;-80
2022/06/03 12:09:53;;;;;;;3.33;2.55;;;;;;;;;;6341607;27;20056;-80
2022/06/03 12:13:15;;;;;;;2.90;2.60;;;;;;;;;;6357456;27;20136;-80
2022/06/03 12:16:17;;;;;;;2.97;2.60;;;;;;;;;;6339356;27;20047;-79
2022/06/03 12:19:47;;;;;;;3.40;2.60;;;;;;;;;;6340434;27;20543;-80
2022/06/03 12:22:49;;;;;;;2.70;2.50;;;;;;;;;;6339269;27;20051;-80
2022/06/03 12:26:00;;;;;;;5.13;2.60;;;;;;;;;;6339852;27;20036;-79
2022/06/03 12:29:14;;;;;;;5.70;2.67;;;;;;;;;;6328915;27;20044;-79
2022/06/03 12:32:28;;;;;;;3.58;2.67;;;;;;;;;;6335465;27;20123;-80
2022/06/03 12:35:41;;;;;;;7.72;2.90;;;;;;;;;;6329192;27;20039;-80
2022/06/03 12:38:53;;;;;;;3.13;2.90;;;;;;;;;;6296277;27;20039;-81
2022/06/03 12:41:59;;;;;;;9.13;3.13;;;;;;;;;;6334125;27;20081;-78
2022/06/03 12:45:12;;;;;;;4.75;2.95;;;;;;;;;;6316879;28;20140;-82
2022/06/03 12:48:35;;;;;;;3.67;2.60;;;;;;;;;;6337840;27;20064;-82
2022/06/03 12:52:01;;;;;;;3.85;2.75;;;;;;;;;;6322191;28;20062;-81
2022/06/03 12:55:23;;;;;;;2.60;2.40;;;;;;;;;;6321816;28;20077;-80
2022/06/03 12:58:32;;;;;;;3.47;3.17;;;;;;;;;;6344456;27;20058;-79
2022/06/03 13:01:42;;;;;;;2.70;2.50;;;;;;;;;;6341765;28;20051;-80
2022/06/03 13:04:47;;;;;;;3.75;2.45;;;;;;;;;;6323736;27;20065;-81
2022/06/03 13:08:18;;;;;;;4.60;2.85;;;;;;;;;;6339033;28;20055;-80
2022/06/03 13:11:19;;;;;;;4.95;2.40;;;;;;;;;;6301150;28;20036;-80
2022/06/03 13:14:28;;;;;;;2.77;2.50;;;;;;;;;;6345064;27;20047;-80
2022/06/03 13:17:58;;;;;;;3.58;2.70;;;;;;;;;;6334375;28;20456;-80
2022/06/03 13:21:00;;;;;;;2.97;2.78;;;;;;;;;;6339864;27;20058;-81
2022/06/03 13:24:24;;;;;;;2.70;2.50;;;;;;;;;;6304988;28;20150;-82
2022/06/03 13:27:25;;;;;;;4.95;2.97;;;;;;;;;;6324794;28;20128;-80
2022/06/03 13:30:35;;;;;;;3.17;2.80;;;;;;;;;;6344704;27;20047;-81
2022/06/03 13:34:02;;;;;;;2.80;2.60;;;;;;;;;;6321560;28;20134;-82
2022/06/03 13:37:39;;;;;;;3.47;2.90;;;;;;;;;;6334379;28;20106;-80
2022/06/03 13:42:57;;;;;;;6.68;2.80;;;;;;;;;;6330737;28;20031;-78
2022/06/03 13:44:16;;;;;;;3.07;2.77;;;;;;;;;;6338321;27;20043;-80
2022/06/03 13:47:47;;;;;;;6.53;3.60;;;;;;;;;;6339480;27;20081;-79
2022/06/03 13:50:49;;;;;;;3.53;3.22;;;;;;;;;;6295759;28;20043;-80
2022/06/03 13:53:54;;;;;;;3.80;3.00;;;;;;;;;;6343748;27;20039;-81
2022/06/03 13:56:58;;;;;;;5.13;2.90;;;;;;;;;;6337223;27;20131;-78
2022/06/03 14:00:22;;;;;;;3.33;3.03;;;;;;;;;;6337319;28;20039;-78
2022/06/03 14:03:33;;;;;;;3.40;3.10;;;;;;;;;;6330292;28;20047;-80
2022/06/03 14:06:39;;;;;;;3.50;2.90;;;;;;;;;;6335972;28;20096;-78
2022/06/03 14:09:50;;;;;;;3.45;3.15;;;;;;;;;;6333299;28;20146;-76
2022/06/03 14:13:01;;;;;;;3.35;3.03;;;;;;;;;;6331859;28;20068;-77
2022/06/03 14:16:11;;;;;;;30.33;22.05;;;;;;;;;;6323931;28;20068;-77
2022/06/03 14:19:42;;;;;;;3.47;3.08;;;;;;;;;;6332753;28;20058;-79
2022/06/03 14:23:03;;;;;;;3.70;3.40;;;;;;;;;;6337558;28;20066;-79
2022/06/03 14:26:11;;;;;;;3.60;3.25;;;;;;;;;;6339021;28;20200;-78
2022/06/03 14:29:42;;;;;;;4.60;3.33;;;;;;;;;;6333161;27;20077;-79
2022/06/03 14:32:53;;;;;;;3.95;3.40;;;;;;;;;;6327679;28;20689;-77
2022/06/03 14:36:01;;;;;;;3.93;3.63;;;;;;;;;;6341846;27;20035;-80
2022/06/03 14:39:13;;;;;;;4.03;3.40;;;;;;;;;;6346709;27;20563;-79
2022/06/03 14:42:31;;;;;;;3.88;3.53;;;;;;;;;;6347841;27;20066;-79
2022/06/03 14:45:42;;;;;;;4.82;3.50;;;;;;;;;;6325051;28;20097;-76
2022/06/03 14:49:00;;;;;;;4.18;3.65;;;;;;;;;;6339994;28;20107;-76
2022/06/03 14:52:17;;;;;;;3.55;3.30;;;;;;;;;;6343340;28;20071;-78
2022/06/03 14:55:21;;;;;;;4.65;3.45;;;;;;;;;;6334185;28;20212;-79
2022/06/03 14:58:35;;;;;;;3.50;3.20;;;;;;;;;;6344947;28;20071;-83
2022/06/03 15:01:49;;;;;;;3.88;3.42;;;;;;;;;;6326431;28;20158;-85
2022/06/03 15:04:56;;;;;;;3.85;3.47;;;;;;;;;;6326732;28;20047;-85
2022/06/03 15:08:08;;;;;;;4.03;3.72;;;;;;;;;;6337596;28;20047;-85
2022/06/03 15:11:35;;;;;;;3.93;3.63;;;;;;;;;;6324591;28;20082;-85
2022/06/03 15:14:37;;;;;;;4.40;3.85;;;;;;;;;;6327932;28;20441;-84
2022/06/03 15:17:39;;;;;;;;;;;;;;;;;;6315985;28;20055;-84
2022/06/03 15:21:14;;;;;;;3.92;3.50;;;;;;;;;;6339346;28;20028;-83
2022/06/03 15:24:16;;;;;;;3.80;3.50;;;;;;;;;;6327921;28;20104;-83
2022/06/03 15:27:37;;;;;;;4.10;3.70;;;;;;;;;;6328706;28;20058;-84
2022/06/03 15:30:42;;;;;;;4.43;3.65;;;;;;;;;;6337601;28;20039;-83
2022/06/03 15:34:07;;;;;;;3.95;3.65;;;;;;;;;;6321960;28;20040;-83
2022/06/03 15:37:11;;;;;;;4.00;3.70;;;;;;;;;;6341012;28;20035;-83
2022/06/03 15:40:29;;;;;;;4.00;3.60;;;;;;;;;;6348455;27;20055;-83
2022/06/03 15:43:45;;;;;;;4.43;3.47;;;;;;;;;;6304689;28;20043;-83
2022/06/03 15:47:02;;;;;;;3.90;3.50;;;;;;;;;;6336945;27;20085;-82
2022/06/03 15:50:23;;;;;;;3.95;3.50;;;;;;;;;;6336514;27;20103;-85
2022/06/03 15:53:28;;;;;;;4.60;3.90;;;;;;;;;;6329303;28;20127;-87
2022/06/03 15:57:00;;;;;;;3.72;3.53;;;;;;;;;;6327542;27;20052;-85
2022/06/03 16:00:15;;;;;;;3.75;3.55;;;;;;;;;;6338615;28;20885;-85
2022/06/03 16:03:31;;;;;;;4.30;3.65;;;;;;;;;;6344099;27;20054;-85
2022/06/03 16:06:41;;;;;;;4.28;3.58;;;;;;;;;;6319612;28;20043;-85
2022/06/03 16:10:01;;;;;;;4.00;3.67;;;;;;;;;;6311108;28;20048;-85
2022/06/03 16:13:35;;;;;;;4.28;3.88;;;;;;;;;;6322876;28;20089;-85
2022/06/03 16:16:53;;;;;;;4.68;3.67;;;;;;;;;;6333831;28;20162;-82
2022/06/03 16:20:06;;;;;;;4.40;4.00;;;;;;;;;;6351069;27;20501;-83
2022/06/03 16:23:18;;;;;;;4.05;3.65;;;;;;;;;;6335756;28;20097;-82
2022/06/03 16:26:34;;;;;;;4.13;3.83;;;;;;;;;;6330366;28;20375;-84
2022/06/03 16:30:01;;;;;;;4.35;3.60;;;;;;;;;;6320174;28;20036;-82
2022/06/03 16:33:28;;;;;;;3.88;3.58;;;;;;;;;;6320978;28;20051;-81
2022/06/03 16:37:00;;;;;;;3.80;3.50;;;;;;;;;;6338130;28;20120;-84
2022/06/03 16:40:18;;;;;;;4.28;3.40;;;;;;;;;;6323346;28;20039;-82
2022/06/03 16:43:44;;;;;;;3.50;3.30;;;;;;;;;;6325951;28;20048;-84
2022/06/03 16:47:10;;;;;;;3.97;3.60;;;;;;;;;;6362948;27;20051;-82
2022/06/03 16:50:18;;;;;;;4.00;3.70;;;;;;;;;;6342635;27;20047;-84
2022/06/03 16:53:28;;;;;;;6.03;4.22;;;;;;;;;;6356944;27;20043;-83
2022/06/03 16:56:33;;;;;;;4.10;3.70;;;;;;;;;;6353848;27;20096;-83
2022/06/03 16:59:36;;;;;;;4.18;3.78;;;;;;;;;;6345641;27;20065;-83
2022/06/03 17:02:47;;;;;;;4.35;3.95;;;;;;;;;;6317656;28;20114;-81
2022/06/03 17:05:52;;;;;;;3.75;3.45;;;;;;;;;;6310575;27;20047;-83
2022/06/03 17:08:57;;;;;;;3.75;3.45;;;;;;;;;;6324165;28;20095;-82
2022/06/03 17:12:03;;;;;;;4.70;4.22;;;;;;;;;;6317551;28;20077;-81
2022/06/03 17:15:06;;;;;;;4.05;3.75;;;;;;;;;;6323011;27;20523;-82
2022/06/03 17:18:08;;;;;;;4.38;3.70;;;;;;;;;;6341994;28;20051;-81
2022/06/03 17:21:29;;;;;;;4.15;3.85;;;;;;;;;;6322017;28;20039;-82
2022/06/03 17:24:39;;;;;;;4.03;3.72;;;;;;;;;;6336331;28;20036;-81
2022/06/03 17:27:59;;;;;;;4.20;3.90;;;;;;;;;;6340203;28;20093;-82
2022/06/03 17:31:10;;;;;;;4.30;3.80;;;;;;;;;;6341361;28;20146;-81
2022/06/03 17:34:21;;;;;;;5.00;3.97;;;;;;;;;;6333525;28;20058;-81
2022/06/03 17:37:38;;;;;;;3.80;3.50;;;;;;;;;;6346423;27;20118;-82
2022/06/03 17:40:46;;;;;;;4.07;3.67;;;;;;;;;;6334310;27;20125;-82
2022/06/03 17:43:57;;;;;;;4.25;3.95;;;;;;;;;;6348580;27;20484;-81
2022/06/03 17:47:10;;;;;;;3.90;3.63;;;;;;;;;;6343778;27;20036;-82
2022/06/03 17:50:22;;;;;;;4.15;3.85;;;;;;;;;;6320356;28;20065;-82
2022/06/03 17:57:33;;;;;;;;;;;;;;;;;;6336402;27;20519;-81
2022/06/03 18:00:38;;;;;;;5.05;4.30;;;;;;;;;;6330615;27;19920;-82
2022/06/03 18:04:06;;;;;;;5.45;4.07;;;;;;;;;;6339575;28;20046;-81
2022/06/03 18:07:42;;;;;;;4.28;3.83;;;;;;;;;;6340409;27;20043;-82
2022/06/03 18:10:49;;;;;;;7.60;4.68;;;;;;;;;;6335990;28;20054;-81
2022/06/03 18:14:03;;;;;;;4.47;4.07;;;;;;;;;;6340079;27;20116;-81
2022/06/03 18:17:04;;;;;;;3.90;3.65;;;;;;;;;;6339185;28;20126;-81
2022/06/03 18:20:15;;;;;;;4.25;3.85;;;;;;;;;;6339254;28;20124;-82
2022/06/03 18:23:48;;;;;;;4.50;4.10;;;;;;;;;;6336132;27;20061;-83
2022/06/03 18:27:13;;;;;;;4.20;3.80;;;;;;;;;;6337116;28;20047;-81
2022/06/03 18:30:33;;;;;;;4.25;3.60;;;;;;;;;;6337231;28;20055;-81
2022/06/03 18:33:48;;;;;;;3.78;3.45;;;;;;;;;;6346550;28;20085;-80
2022/06/03 18:37:04;;;;;;;6.95;6.25;;;;;;;;;;6347147;28;20089;-82
2022/06/03 18:40:06;;;;;;;4.90;4.50;;;;;;;;;;6326274;27;20051;-80
2022/06/03 18:43:22;;;;;;;4.72;4.13;;;;;;;;;;6345180;27;20040;-81
2022/06/03 18:46:46;;;;;;;4.72;4.35;;;;;;;;;;6340035;28;20535;-79
2022/06/03 18:50:10;;;;;;;4.47;4.18;;;;;;;;;;6333694;28;20063;-79
2022/06/03 18:53:30;;;;;;;4.70;4.22;;;;;;;;;;6329492;28;20079;-79
2022/06/03 18:57:08;;;;;;;5.20;4.18;;;;;;;;;;6334279;28;20051;-79
2022/06/03 19:00:20;;;;;;;3.83;3.53;;;;;;;;;;6340840;28;20127;-79
2022/06/03 19:03:53;;;;;;;4.00;3.70;;;;;;;;;;6322430;28;20127;-79
2022/06/03 19:07:14;;;;;;;5.57;4.20;;;;;;;;;;6337267;28;20100;-79
2022/06/03 19:10:24;;;;;;;4.80;4.30;;;;;;;;;;6330843;28;20056;-78
2022/06/03 19:13:48;;;;;;;4.65;4.25;;;;;;;;;;6337898;28;20203;-80
2022/06/03 19:17:02;;;;;;;4.65;4.25;;;;;;;;;;6338523;27;20046;-80
2022/06/03 19:20:33;;;;;;;5.00;4.40;;;;;;;;;;6344131;27;20039;-79
2022/06/03 19:24:03;;;;;;;4.57;4.13;;;;;;;;;;6344179;27;20162;-80
2022/06/03 19:27:28;;;;;;;7.80;4.75;;;;;;;;;;6350093;27;20044;-79
2022/06/03 19:30:32;;;;;;;4.75;4.25;;;;;;;;;;6348331;27;20738;-80
2022/06/03 19:33:35;;;;;;;4.30;3.90;;;;;;;;;;6321640;28;20492;-80
2022/06/03 19:36:49;;;;;;;;;;;;;;;;;;6343496;27;20538;-79
2022/06/03 19:40:32;;;;;;;5.20;4.35;;;;;;;;;;6327405;27;19924;-79
2022/06/03 19:44:04;;;;;;;4.90;4.50;;;;;;;;;;6335459;27;20136;-80
2022/06/03 19:47:11;;;;;;;5.25;4.75;;;;;;;;;;6343383;27;20095;-80
2022/06/03 19:50:56;;;;;;;5.30;4.90;;;;;;;;;;6337096;27;20120;-80
2022/06/03 19:54:23;;;;;;;5.30;4.90;;;;;;;;;;6330547;28;20059;-79
2022/06/03 19:57:31;;;;;;;5.07;4.68;;;;;;;;;;6331887;27;20051;-79
2022/06/03 20:00:53;;;;;;;5.25;4.68;;;;;;;;;;6328494;28;20484;-79
2022/06/03 20:04:23;;;;;;;5.45;4.20;;;;;;;;;;6327959;28;20051;-80
2022/06/03 20:07:56;;;;;;;5.22;4.63;;;;;;;;;;6334113;28;20140;-79
2022/06/03 20:13:22;;;;;;;5.05;4.68;;;;;;;;;;6332488;28;20040;-80